Weather at RAF Petah Tikva [CLOSED]

Public forecast

Using degrees Celsius for public forecast. Weather courtesy of forecast.io.

Closest aviation weather report (METAR) to RAF Petah Tikva

Closest report is Ben Gurion International Airport, 4.8 nm (8.9 km) SSW.

2024/05/20 05:50 (retrieved 30 minutes ago)

LLBG 200550Z 19004KT 150V220 9000 NSC 28/11 Q1010 NOSIG

Closest aviation forecast (TAF) to RAF Petah Tikva

Closest forecast is Ben Gurion International Airport, 4.8 nm (8.9 km) SSW.

2024/05/20 06:09 (retrieved 11 minutes ago)

TAF TAF LLBG 200505Z 2006/2106 VRB03KT CAVOK BECMG 2007/2009 26010KT BECMG 2015/2017 VRB03KT BECMG 2023/2101 18005KT 9000 SCT015 PROB40 TEMPO 2101/2105 22007KT 7000 BKN012 TX35/2011Z TN20/2103Z